Time;durP1;ratioP1;P1;durP2;ratioP2;P2;SDS_P1;SDS_P2;PMS_P1;PMS_P2;Temp;Humidity;BMP_temperature;BMP_pressure;BME280_temperature;BME280_humidity;BME280_pressure;Samples;Min_cycle;Max_cycle;Signal;HPM_P1;HPM_P2
2023/12/16 00:00:26;;;;;;;21.23;7.05;;;;;;;;;;5018314;28;20069;-81
2023/12/16 00:02:52;;;;;;;12.90;6.47;;;;;;;;;;5017237;28;20029;-83
2023/12/16 00:05:17;;;;;;;16.57;7.27;;;;;;;;;;5018245;28;20064;-83
2023/12/16 00:07:42;;;;;;;14.45;6.22;;;;;;;;;;5018111;28;20330;-82
2023/12/16 00:10:09;;;;;;;15.20;6.50;;;;;;;;;;5018752;28;20041;-83
2023/12/16 00:12:34;;;;;;;13.55;6.88;;;;;;;;;;5034558;28;20781;-82
2023/12/16 00:14:59;;;;;;;16.15;6.53;;;;;;;;;;5032359;28;20053;-81
2023/12/16 00:17:25;;;;;;;13.77;6.72;;;;;;;;;;5032888;28;20029;-81
2023/12/16 00:19:50;;;;;;;15.05;6.20;;;;;;;;;;5018401;28;20025;-81
2023/12/16 00:22:15;;;;;;;13.32;6.50;;;;;;;;;;5017170;28;20030;-80
2023/12/16 00:24:41;;;;;;;14.57;6.75;;;;;;;;;;5016466;28;20523;-81
2023/12/16 00:27:06;;;;;;;15.85;6.22;;;;;;;;;;5014593;28;20053;-82
2023/12/16 00:29:31;;;;;;;14.15;6.22;;;;;;;;;;5016329;28;20113;-81
2023/12/16 00:31:56;;;;;;;14.87;5.77;;;;;;;;;;5014647;28;20029;-81
2023/12/16 00:34:22;;;;;;;14.43;6.43;;;;;;;;;;5017971;28;20248;-81
2023/12/16 00:36:48;;;;;;;13.73;5.78;;;;;;;;;;5019052;28;20255;-81
2023/12/16 00:39:13;;;;;;;14.55;6.35;;;;;;;;;;5019546;28;20033;-81
2023/12/16 00:41:39;;;;;;;13.52;5.95;;;;;;;;;;5020557;28;20037;-82
2023/12/16 00:44:04;;;;;;;13.20;6.07;;;;;;;;;;5021515;28;20068;-80
2023/12/16 00:46:31;;;;;;;13.68;5.88;;;;;;;;;;5021608;28;20492;-81
2023/12/16 00:48:56;;;;;;;13.07;6.30;;;;;;;;;;5020878;28;20022;-80
2023/12/16 00:51:21;;;;;;;13.43;5.97;;;;;;;;;;5018031;28;20374;-82
2023/12/16 00:53:47;;;;;;;14.95;6.22;;;;;;;;;;5019799;28;20032;-81
2023/12/16 00:56:12;;;;;;;10.63;5.25;;;;;;;;;;5020192;28;20555;-79
2023/12/16 00:58:37;;;;;;;14.27;6.07;;;;;;;;;;5019794;28;20030;-81
2023/12/16 01:01:03;;;;;;;14.60;6.07;;;;;;;;;;5023686;28;20266;-82
2023/12/16 01:03:28;;;;;;;14.15;6.28;;;;;;;;;;5027166;28;20022;-81
2023/12/16 01:05:53;;;;;;;12.00;5.53;;;;;;;;;;5023302;28;20080;-81
2023/12/16 01:08:18;;;;;;;9.55;5.60;;;;;;;;;;5039919;28;20255;-81
2023/12/16 01:10:44;;;;;;;13.20;5.40;;;;;;;;;;5022468;28;20018;-83
2023/12/16 01:13:09;;;;;;;11.38;5.80;;;;;;;;;;5025342;28;20022;-82
2023/12/16 01:15:35;;;;;;;17.80;6.63;;;;;;;;;;5025899;28;20053;-80
2023/12/16 01:18:01;;;;;;;11.32;5.88;;;;;;;;;;5025122;28;20507;-82
2023/12/16 01:20:26;;;;;;;20.00;6.85;;;;;;;;;;5025764;28;20089;-81
2023/12/16 01:22:51;;;;;;;14.50;6.30;;;;;;;;;;5024673;28;20397;-81
2023/12/16 01:25:16;;;;;;;16.17;6.32;;;;;;;;;;5023579;28;20025;-81
2023/12/16 01:27:42;;;;;;;13.75;6.50;;;;;;;;;;5023686;28;20056;-82
2023/12/16 01:30:08;;;;;;;20.25;6.88;;;;;;;;;;5023742;28;20021;-82
2023/12/16 01:32:33;;;;;;;15.18;6.47;;;;;;;;;;5023541;28;20103;-82
2023/12/16 01:34:59;;;;;;;15.55;7.32;;;;;;;;;;5022927;28;20025;-80
2023/12/16 01:37:26;;;;;;;17.58;6.68;;;;;;;;;;5021729;28;20024;-82
2023/12/16 01:39:51;;;;;;;16.30;7.00;;;;;;;;;;5038223;28;20034;-81
2023/12/16 01:42:17;;;;;;;13.80;6.65;;;;;;;;;;5023811;28;20030;-81
2023/12/16 01:44:42;;;;;;;14.60;6.95;;;;;;;;;;5023680;28;20113;-81
2023/12/16 01:47:07;;;;;;;14.52;6.78;;;;;;;;;;5020200;28;20066;-81
2023/12/16 01:49:33;;;;;;;16.15;6.88;;;;;;;;;;5034515;28;20026;-81
2023/12/16 01:51:58;;;;;;;18.42;7.43;;;;;;;;;;5019813;28;20026;-84
2023/12/16 01:54:24;;;;;;;16.38;6.55;;;;;;;;;;5018534;28;20501;-82
2023/12/16 01:56:56;;;;;;;12.52;6.50;;;;;;;;;;5019390;28;20120;-82
2023/12/16 01:59:22;;;;;;;21.90;7.55;;;;;;;;;;5019850;28;20029;-82
2023/12/16 02:01:47;;;;;;;15.93;6.60;;;;;;;;;;5018249;28;20022;-83
2023/12/16 02:04:13;;;;;;;15.48;7.13;;;;;;;;;;5019286;28;20029;-82
2023/12/16 02:06:39;;;;;;;15.27;6.93;;;;;;;;;;5018303;28;20379;-82
2023/12/16 02:09:06;;;;;;;14.40;6.93;;;;;;;;;;5019501;28;20024;-82
2023/12/16 02:11:31;;;;;;;16.55;6.93;;;;;;;;;;5020490;28;20033;-82
2023/12/16 02:13:56;;;;;;;17.33;6.25;;;;;;;;;;5019547;28;20117;-83
2023/12/16 02:16:22;;;;;;;13.17;6.03;;;;;;;;;;5020950;28;20030;-83
2023/12/16 02:18:49;;;;;;;14.02;6.50;;;;;;;;;;5037185;28;20282;-82
2023/12/16 02:21:14;;;;;;;18.45;7.15;;;;;;;;;;5004066;28;20037;-82
2023/12/16 02:23:39;;;;;;;15.35;6.82;;;;;;;;;;5022038;28;20030;-83
2023/12/16 02:26:05;;;;;;;17.15;7.00;;;;;;;;;;5021827;28;20026;-83
2023/12/16 02:28:30;;;;;;;18.00;7.10;;;;;;;;;;5020278;28;20079;-80
2023/12/16 02:30:56;;;;;;;13.98;6.50;;;;;;;;;;5019959;28;20101;-82
2023/12/16 02:33:21;;;;;;;16.75;6.57;;;;;;;;;;5021257;28;20029;-82
2023/12/16 02:35:46;;;;;;;14.75;6.35;;;;;;;;;;5035244;28;20025;-82
2023/12/16 02:38:11;;;;;;;15.63;6.37;;;;;;;;;;5035904;28;20030;-84
2023/12/16 02:40:42;;;;;;;15.90;6.47;;;;;;;;;;5020245;28;20286;-82
2023/12/16 02:43:07;;;;;;;13.95;6.05;;;;;;;;;;5019190;28;20032;-82
2023/12/16 02:45:33;;;;;;;16.67;6.13;;;;;;;;;;5035528;28;20117;-79
2023/12/16 02:47:58;;;;;;;14.73;5.63;;;;;;;;;;5025551;28;20034;-80
2023/12/16 02:50:23;;;;;;;11.83;5.77;;;;;;;;;;5026784;28;20021;-79
2023/12/16 02:52:48;;;;;;;15.20;6.53;;;;;;;;;;5039362;28;20274;-81
2023/12/16 02:55:14;;;;;;;11.75;5.18;;;;;;;;;;5017553;28;20260;-81
2023/12/16 02:57:39;;;;;;;14.00;6.10;;;;;;;;;;5016777;28;20547;-81
2023/12/16 03:00:05;;;;;;;13.32;5.72;;;;;;;;;;5033494;28;20033;-81
2023/12/16 03:02:30;;;;;;;12.93;5.60;;;;;;;;;;5017797;28;20421;-81
2023/12/16 03:04:55;;;;;;;12.32;6.18;;;;;;;;;;5017281;28;20026;-81
2023/12/16 03:07:20;;;;;;;14.43;5.82;;;;;;;;;;5019636;28;20037;-81
2023/12/16 03:09:46;;;;;;;12.03;5.47;;;;;;;;;;5019569;28;20105;-81
2023/12/16 03:12:11;;;;;;;13.80;5.63;;;;;;;;;;5020413;28;20337;-82
2023/12/16 03:14:39;;;;;;;12.30;5.30;;;;;;;;;;5020084;28;20026;-82
2023/12/16 03:17:05;;;;;;;11.93;4.80;;;;;;;;;;5019295;28;20090;-81
2023/12/16 03:19:31;;;;;;;11.30;5.00;;;;;;;;;;5020131;28;20076;-82
2023/12/16 03:21:56;;;;;;;12.52;4.95;;;;;;;;;;5019996;28;20101;-82
2023/12/16 03:24:21;;;;;;;11.93;4.72;;;;;;;;;;5017961;28;20468;-81
2023/12/16 03:26:47;;;;;;;12.75;5.28;;;;;;;;;;5019807;28;20026;-81
2023/12/16 03:29:12;;;;;;;12.25;4.47;;;;;;;;;;5020101;28;20315;-82
2023/12/16 03:31:37;;;;;;;10.80;4.93;;;;;;;;;;5020463;28;20022;-82
2023/12/16 03:34:02;;;;;;;12.93;4.83;;;;;;;;;;5018407;28;20029;-82
2023/12/16 03:36:28;;;;;;;10.05;4.80;;;;;;;;;;5018212;28;20266;-82
2023/12/16 03:38:53;;;;;;;11.55;4.43;;;;;;;;;;5019308;28;20021;-82
2023/12/16 03:41:19;;;;;;;9.98;4.35;;;;;;;;;;5019988;28;20032;-83
2023/12/16 03:43:44;;;;;;;8.45;3.75;;;;;;;;;;5020796;28;20044;-82
2023/12/16 03:46:09;;;;;;;11.82;3.80;;;;;;;;;;5019368;28;20042;-83
2023/12/16 03:48:36;;;;;;;9.23;3.88;;;;;;;;;;5020882;28;20049;-83
2023/12/16 03:51:01;;;;;;;12.52;3.75;;;;;;;;;;5020322;28;20118;-81
2023/12/16 03:53:26;;;;;;;9.43;3.40;;;;;;;;;;5020382;28;20064;-82
2023/12/16 03:55:52;;;;;;;11.73;3.63;;;;;;;;;;5019683;28;20062;-82
2023/12/16 03:58:18;;;;;;;8.20;3.53;;;;;;;;;;5019969;28;20283;-82
2023/12/16 04:00:43;;;;;;;9.10;3.63;;;;;;;;;;5018055;28;20022;-83
2023/12/16 04:03:08;;;;;;;9.07;3.00;;;;;;;;;;5017130;28;20735;-81
2023/12/16 04:05:34;;;;;;;6.68;3.10;;;;;;;;;;5017646;28;20450;-80
2023/12/16 04:07:59;;;;;;;10.38;2.85;;;;;;;;;;5017021;28;20109;-81
2023/12/16 04:10:24;;;;;;;8.55;3.17;;;;;;;;;;5015607;28;20049;-81
2023/12/16 04:12:50;;;;;;;8.48;2.97;;;;;;;;;;5016866;28;20026;-81
2023/12/16 04:15:15;;;;;;;11.10;3.17;;;;;;;;;;5015480;28;20113;-80
2023/12/16 04:17:40;;;;;;;6.87;3.10;;;;;;;;;;5016252;28;20295;-79
2023/12/16 04:20:06;;;;;;;10.88;2.83;;;;;;;;;;5016537;28;20287;-80
2023/12/16 04:22:31;;;;;;;7.75;3.20;;;;;;;;;;5016483;28;20040;-82
2023/12/16 04:25:00;;;;;;;5.30;2.80;;;;;;;;;;5016337;28;20167;-81
2023/12/16 04:27:26;;;;;;;7.95;2.67;;;;;;;;;;5016254;28;20669;-81
2023/12/16 04:29:52;;;;;;;6.53;2.72;;;;;;;;;;5016422;28;20025;-81
2023/12/16 04:32:17;;;;;;;9.50;2.70;;;;;;;;;;5016121;28;20038;-80
2023/12/16 04:34:42;;;;;;;7.75;2.92;;;;;;;;;;5031061;28;20022;-81
2023/12/16 04:37:08;;;;;;;5.05;2.55;;;;;;;;;;5015555;28;20108;-81
2023/12/16 04:39:33;;;;;;;7.03;2.50;;;;;;;;;;5031364;28;20081;-80
2023/12/16 04:41:58;;;;;;;7.13;3.13;;;;;;;;;;5015624;28;20286;-83
2023/12/16 04:44:23;;;;;;;6.53;2.60;;;;;;;;;;5014725;28;20265;-81
2023/12/16 04:46:49;;;;;;;6.53;2.57;;;;;;;;;;5016336;28;20037;-82
2023/12/16 04:49:14;;;;;;;7.15;2.58;;;;;;;;;;5031641;28;20265;-81
2023/12/16 04:51:39;;;;;;;7.28;2.63;;;;;;;;;;5014781;28;20469;-81
2023/12/16 04:54:04;;;;;;;8.65;2.58;;;;;;;;;;5015651;28;20029;-79
2023/12/16 04:56:29;;;;;;;8.40;2.95;;;;;;;;;;5015293;28;20034;-81
2023/12/16 04:58:55;;;;;;;5.67;2.80;;;;;;;;;;5014065;28;20057;-81
2023/12/16 05:01:20;;;;;;;7.50;2.45;;;;;;;;;;5016125;28;20309;-81
2023/12/16 05:03:47;;;;;;;7.32;2.90;;;;;;;;;;5017251;28;20022;-82
2023/12/16 05:06:12;;;;;;;8.77;2.75;;;;;;;;;;5016085;28;20084;-81
2023/12/16 05:08:38;;;;;;;10.30;2.67;;;;;;;;;;5017049;28;20030;-81
2023/12/16 05:11:03;;;;;;;7.53;2.60;;;;;;;;;;5016060;28;20026;-81
2023/12/16 05:13:28;;;;;;;7.80;2.65;;;;;;;;;;5015817;28;20018;-81
2023/12/16 05:15:53;;;;;;;9.80;2.63;;;;;;;;;;5016536;28;20034;-82
2023/12/16 05:18:19;;;;;;;8.57;2.72;;;;;;;;;;5018423;28;20089;-82
2023/12/16 05:20:44;;;;;;;6.85;2.40;;;;;;;;;;5020975;28;20026;-81
2023/12/16 05:23:10;;;;;;;8.90;2.92;;;;;;;;;;5021536;28;20616;-81
2023/12/16 05:25:35;;;;;;;6.60;2.53;;;;;;;;;;5022872;28;20026;-82
2023/12/16 05:28:01;;;;;;;7.00;2.35;;;;;;;;;;5021834;28;20113;-81
2023/12/16 05:30:27;;;;;;;5.05;2.50;;;;;;;;;;5021436;28;20458;-82
2023/12/16 05:32:55;;;;;;;6.60;2.50;;;;;;;;;;5019542;28;20058;-83
2023/12/16 05:35:21;;;;;;;7.18;2.50;;;;;;;;;;5020044;28;20018;-81
2023/12/16 05:37:46;;;;;;;6.50;2.50;;;;;;;;;;5020368;28;20076;-81
2023/12/16 05:40:12;;;;;;;5.03;2.60;;;;;;;;;;5019281;28;20056;-82
2023/12/16 05:42:40;;;;;;;6.28;2.80;;;;;;;;;;5019028;28;20179;-83
2023/12/16 05:45:05;;;;;;;7.82;2.95;;;;;;;;;;5020080;28;20028;-80
2023/12/16 05:47:30;;;;;;;8.40;2.63;;;;;;;;;;5018883;28;20076;-80
2023/12/16 05:49:56;;;;;;;7.80;2.40;;;;;;;;;;5019362;28;20025;-81
2023/12/16 05:52:21;;;;;;;7.82;2.65;;;;;;;;;;5034543;28;20259;-81
2023/12/16 05:54:47;;;;;;;5.68;2.55;;;;;;;;;;5018584;28;20057;-81
2023/12/16 05:57:12;;;;;;;10.65;2.72;;;;;;;;;;5019989;28;20487;-83
2023/12/16 05:59:37;;;;;;;10.53;3.50;;;;;;;;;;5018730;28;20118;-82
2023/12/16 06:02:03;;;;;;;9.77;3.22;;;;;;;;;;5018368;28;20279;-81
2023/12/16 06:04:29;;;;;;;8.85;2.70;;;;;;;;;;5018779;28;20045;-81
2023/12/16 06:06:57;;;;;;;7.15;2.28;;;;;;;;;;5019262;28;20493;-80
2023/12/16 06:09:22;;;;;;;6.07;2.80;;;;;;;;;;5018751;28;20026;-83
2023/12/16 06:11:47;;;;;;;6.20;2.67;;;;;;;;;;5018755;28;20080;-81
2023/12/16 06:14:13;;;;;;;6.70;2.53;;;;;;;;;;5019030;28;20022;-81
2023/12/16 06:16:38;;;;;;;9.95;2.72;;;;;;;;;;5033877;28;20117;-81
2023/12/16 06:19:03;;;;;;;5.82;2.35;;;;;;;;;;5018736;28;20026;-82
2023/12/16 06:21:31;;;;;;;8.30;2.90;;;;;;;;;;5017272;28;20029;-82
2023/12/16 06:24:00;;;;;;;7.70;2.75;;;;;;;;;;5018414;28;20259;-83
2023/12/16 06:26:25;;;;;;;7.05;2.33;;;;;;;;;;5034083;28;20018;-83
2023/12/16 06:28:51;;;;;;;8.55;3.10;;;;;;;;;;5018548;28;20021;-82
2023/12/16 06:31:17;;;;;;;7.88;2.90;;;;;;;;;;5042280;28;20044;-79
2023/12/16 06:33:42;;;;;;;7.70;2.70;;;;;;;;;;5023279;28;20620;-79
2023/12/16 06:36:08;;;;;;;8.52;2.72;;;;;;;;;;5022840;28;20018;-78
2023/12/16 06:38:33;;;;;;;8.35;2.50;;;;;;;;;;5019277;28;20026;-80
2023/12/16 06:40:58;;;;;;;5.67;2.87;;;;;;;;;;5018383;28;20033;-82
2023/12/16 06:43:23;;;;;;;8.63;2.67;;;;;;;;;;5017990;28;20283;-80
2023/12/16 06:45:48;;;;;;;5.70;2.60;;;;;;;;;;5017518;28;20263;-81
2023/12/16 06:48:14;;;;;;;9.32;3.03;;;;;;;;;;5017953;28;20270;-82
2023/12/16 06:50:39;;;;;;;7.87;2.53;;;;;;;;;;5017133;28;20026;-81
2023/12/16 06:53:04;;;;;;;9.23;2.80;;;;;;;;;;5033136;28;20268;-81
2023/12/16 06:55:29;;;;;;;12.38;2.90;;;;;;;;;;5015644;28;20271;-82
2023/12/16 06:57:55;;;;;;;9.17;3.00;;;;;;;;;;5032691;28;20465;-80
2023/12/16 07:00:20;;;;;;;6.32;3.03;;;;;;;;;;5017521;28;20754;-82
2023/12/16 07:02:45;;;;;;;7.53;2.45;;;;;;;;;;5016975;28;20088;-81
2023/12/16 07:05:11;;;;;;;9.80;2.70;;;;;;;;;;5032773;28;20350;-83
2023/12/16 07:07:36;;;;;;;8.70;2.85;;;;;;;;;;5017002;28;20750;-84
2023/12/16 07:10:02;;;;;;;5.97;2.25;;;;;;;;;;5033257;28;20026;-82
2023/12/16 07:12:27;;;;;;;6.45;2.60;;;;;;;;;;5016609;28;20022;-83
2023/12/16 07:14:52;;;;;;;7.75;2.90;;;;;;;;;;5018814;28;20076;-84
2023/12/16 07:17:18;;;;;;;6.87;2.57;;;;;;;;;;5018371;28;20068;-82
2023/12/16 07:19:43;;;;;;;9.77;3.00;;;;;;;;;;5016788;28;20282;-83
2023/12/16 07:22:08;;;;;;;6.47;2.50;;;;;;;;;;5016700;28;20028;-84
2023/12/16 07:24:33;;;;;;;8.13;2.90;;;;;;;;;;5015951;28;20346;-81
2023/12/16 07:26:58;;;;;;;8.47;3.00;;;;;;;;;;5017504;28;20295;-81
2023/12/16 07:29:25;;;;;;;7.68;3.17;;;;;;;;;;5017405;28;20310;-82
2023/12/16 07:31:50;;;;;;;10.35;3.13;;;;;;;;;;5015514;28;20108;-82
2023/12/16 07:34:16;;;;;;;9.23;2.88;;;;;;;;;;5015521;28;20061;-82
2023/12/16 07:36:42;;;;;;;8.07;3.05;;;;;;;;;;5016785;28;20113;-81
2023/12/16 07:39:08;;;;;;;9.18;3.35;;;;;;;;;;5017173;28;20094;-82
2023/12/16 07:41:34;;;;;;;8.20;3.15;;;;;;;;;;5015548;28;20400;-84
2023/12/16 07:43:59;;;;;;;6.68;2.83;;;;;;;;;;5032008;28;20033;-83
2023/12/16 07:46:25;;;;;;;7.13;3.30;;;;;;;;;;5017110;28;20115;-82
2023/12/16 07:48:51;;;;;;;6.10;3.10;;;;;;;;;;5017290;28;20511;-83
2023/12/16 07:51:17;;;;;;;8.57;3.13;;;;;;;;;;5017321;28;20094;-83
2023/12/16 07:53:46;;;;;;;6.18;2.70;;;;;;;;;;5018063;28;20303;-83
2023/12/16 07:56:16;;;;;;;10.85;3.15;;;;;;;;;;5018146;28;20114;-82
2023/12/16 07:58:42;;;;;;;8.85;3.30;;;;;;;;;;5018378;28;20026;-83
2023/12/16 08:01:07;;;;;;;14.65;3.15;;;;;;;;;;5017939;28;20109;-83
2023/12/16 08:03:32;;;;;;;5.57;3.03;;;;;;;;;;5019900;28;20496;-83
2023/12/16 08:05:57;;;;;;;10.95;3.70;;;;;;;;;;5020377;28;20045;-83
2023/12/16 08:08:23;;;;;;;5.83;3.33;;;;;;;;;;5036451;28;20030;-83
2023/12/16 08:10:52;;;;;;;10.67;3.67;;;;;;;;;;5020120;28;20262;-82
2023/12/16 08:13:17;;;;;;;9.50;3.50;;;;;;;;;;5018630;28;20259;-82
2023/12/16 08:15:43;;;;;;;8.60;3.17;;;;;;;;;;5032517;28;20028;-82
2023/12/16 08:18:09;;;;;;;10.55;3.83;;;;;;;;;;5017031;28;20335;-82
2023/12/16 08:20:34;;;;;;;8.48;3.38;;;;;;;;;;5016358;28;20539;-79
2023/12/16 08:23:02;;;;;;;14.23;3.47;;;;;;;;;;5015935;28;20030;-81
2023/12/16 08:25:27;;;;;;;7.78;2.90;;;;;;;;;;5015708;28;20324;-82
2023/12/16 08:27:52;;;;;;;8.52;3.08;;;;;;;;;;5015935;28;20033;-80
2023/12/16 08:30:18;;;;;;;10.27;3.53;;;;;;;;;;5015876;28;20018;-83
2023/12/16 08:32:43;;;;;;;6.82;3.15;;;;;;;;;;5030957;28;20262;-81
2023/12/16 08:35:08;;;;;;;9.13;3.10;;;;;;;;;;5016584;28;20413;-82
2023/12/16 08:37:34;;;;;;;7.77;3.00;;;;;;;;;;5030754;28;20030;-81
2023/12/16 08:39:59;;;;;;;9.27;3.75;;;;;;;;;;5016141;28;20333;-82
2023/12/16 08:42:24;;;;;;;8.80;3.22;;;;;;;;;;5016341;28;20033;-82
2023/12/16 08:44:49;;;;;;;5.65;3.10;;;;;;;;;;5016044;28;20029;-83
2023/12/16 08:47:15;;;;;;;10.27;3.10;;;;;;;;;;5015121;28;20041;-80
2023/12/16 08:49:43;;;;;;;8.60;3.13;;;;;;;;;;5031383;28;20247;-81
2023/12/16 08:52:09;;;;;;;7.25;2.80;;;;;;;;;;5015704;28;20053;-81
2023/12/16 08:54:34;;;;;;;9.20;3.03;;;;;;;;;;5016781;28;20126;-81
2023/12/16 08:57:01;;;;;;;8.70;3.10;;;;;;;;;;5020106;28;20635;-82
2023/12/16 08:59:26;;;;;;;7.07;2.92;;;;;;;;;;5019411;28;20287;-82
2023/12/16 09:01:52;;;;;;;9.10;3.40;;;;;;;;;;5019359;28;20049;-80
2023/12/16 09:04:17;;;;;;;8.07;3.20;;;;;;;;;;5019725;28;20252;-82
2023/12/16 09:06:43;;;;;;;8.40;3.33;;;;;;;;;;5019845;28;20040;-82
2023/12/16 09:09:09;;;;;;;8.43;3.30;;;;;;;;;;5033881;28;20271;-83
2023/12/16 09:11:34;;;;;;;13.60;3.67;;;;;;;;;;5019617;28;20030;-80
2023/12/16 09:13:59;;;;;;;8.05;3.05;;;;;;;;;;5019408;28;20057;-81
2023/12/16 09:16:25;;;;;;;7.40;3.20;;;;;;;;;;5019006;28;20382;-81
2023/12/16 09:18:50;;;;;;;8.57;3.23;;;;;;;;;;5017435;28;20041;-82
2023/12/16 09:21:15;;;;;;;8.17;3.53;;;;;;;;;;5017994;28;20248;-80
2023/12/16 09:23:40;;;;;;;7.57;3.07;;;;;;;;;;5019328;28;20282;-81
2023/12/16 09:26:05;;;;;;;12.03;3.20;;;;;;;;;;5019476;28;20267;-80
2023/12/16 09:28:31;;;;;;;9.50;3.30;;;;;;;;;;5020116;28;20312;-81
2023/12/16 09:30:56;;;;;;;7.65;2.88;;;;;;;;;;5019742;28;20022;-81
2023/12/16 09:33:22;;;;;;;10.45;3.40;;;;;;;;;;5019031;28;20386;-82
2023/12/16 09:35:47;;;;;;;8.20;3.05;;;;;;;;;;5018839;28;20030;-83
2023/12/16 09:38:12;;;;;;;7.50;3.10;;;;;;;;;;5034492;28;20502;-80
2023/12/16 09:40:40;;;;;;;9.18;3.00;;;;;;;;;;5018235;28;20690;-83
2023/12/16 09:43:16;;;;;;;8.20;3.10;;;;;;;;;;5019221;28;20144;-81
2023/12/16 09:45:48;;;;;;;7.55;3.17;;;;;;;;;;5017834;28;20477;-80
2023/12/16 09:48:17;;;;;;;7.57;3.20;;;;;;;;;;5019918;28;20092;-81
2023/12/16 09:50:42;;;;;;;7.55;3.25;;;;;;;;;;5019451;28;20021;-82
2023/12/16 09:53:08;;;;;;;8.43;3.10;;;;;;;;;;5020634;28;20041;-82
2023/12/16 09:55:33;;;;;;;9.32;3.60;;;;;;;;;;5018874;28;20037;-81
2023/12/16 09:58:00;;;;;;;10.10;4.13;;;;;;;;;;5035092;28;20093;-81
2023/12/16 10:00:28;;;;;;;9.25;3.47;;;;;;;;;;5017598;28;20029;-81
2023/12/16 10:02:56;;;;;;;11.20;3.63;;;;;;;;;;5021172;28;20030;-81
2023/12/16 10:05:22;;;;;;;8.90;3.22;;;;;;;;;;5019597;28;20481;-81
2023/12/16 10:07:47;;;;;;;9.27;3.03;;;;;;;;;;5017808;28;20034;-81
2023/12/16 10:10:13;;;;;;;7.50;2.78;;;;;;;;;;5018897;28;20028;-81
2023/12/16 10:12:38;;;;;;;12.85;3.00;;;;;;;;;;5019183;28;20022;-82
2023/12/16 10:15:04;;;;;;;9.63;3.47;;;;;;;;;;5018441;28;20037;-81
2023/12/16 10:17:29;;;;;;;7.70;3.42;;;;;;;;;;5018242;28;20026;-82
2023/12/16 10:19:54;;;;;;;10.57;3.15;;;;;;;;;;5045193;28;20022;-80
2023/12/16 10:22:20;;;;;;;7.83;2.83;;;;;;;;;;5035404;28;20041;-80
2023/12/16 10:24:46;;;;;;;10.00;3.42;;;;;;;;;;5031542;28;20251;-81
2023/12/16 10:27:11;;;;;;;8.90;2.78;;;;;;;;;;5019459;28;20508;-83
2023/12/16 10:29:40;;;;;;;10.02;2.80;;;;;;;;;;5020896;28;20389;-83
2023/12/16 10:32:08;;;;;;;9.55;3.08;;;;;;;;;;5020813;28;20050;-83
2023/12/16 10:34:34;;;;;;;10.77;3.10;;;;;;;;;;5019946;28;20171;-80
2023/12/16 10:37:06;;;;;;;7.75;2.85;;;;;;;;;;5020043;28;20041;-83
2023/12/16 10:39:32;;;;;;;5.32;2.58;;;;;;;;;;5019429;28;20026;-82
2023/12/16 10:41:57;;;;;;;7.85;3.20;;;;;;;;;;5021977;28;20489;-83
2023/12/16 10:44:26;;;;;;;6.53;3.13;;;;;;;;;;5019092;28;20032;-82
2023/12/16 10:46:54;;;;;;;7.63;2.75;;;;;;;;;;5018345;28;20386;-82
2023/12/16 10:49:27;;;;;;;9.70;3.17;;;;;;;;;;5021668;28;20026;-83
2023/12/16 10:52:00;;;;;;;7.85;2.60;;;;;;;;;;5018774;28;20540;-84
2023/12/16 10:54:32;;;;;;;7.70;3.08;;;;;;;;;;5019348;28;20072;-83
2023/12/16 10:57:29;;;;;;;8.10;3.40;;;;;;;;;;5018800;28;20065;-81
2023/12/16 11:00:05;;;;;;;9.43;3.33;;;;;;;;;;5018314;28;20099;-81
2023/12/16 11:02:31;;;;;;;5.82;2.67;;;;;;;;;;5018252;28;20034;-82
2023/12/16 11:05:14;;;;;;;9.32;3.20;;;;;;;;;;5033411;28;20045;-82
2023/12/16 11:07:41;;;;;;;9.25;2.75;;;;;;;;;;5017920;28;20079;-81
2023/12/16 11:10:07;;;;;;;6.18;2.75;;;;;;;;;;5018013;28;20096;-81
2023/12/16 11:12:35;;;;;;;6.15;3.25;;;;;;;;;;5018427;28;20057;-82
2023/12/16 11:15:03;;;;;;;8.45;3.20;;;;;;;;;;5018601;28;20125;-82
2023/12/16 11:17:40;;;;;;;5.75;2.53;;;;;;;;;;5017095;28;20022;-82
2023/12/16 11:20:06;;;;;;;8.10;2.78;;;;;;;;;;5017880;28;20037;-80
2023/12/16 11:22:32;;;;;;;8.32;2.90;;;;;;;;;;5015429;28;20085;-81
2023/12/16 11:24:57;;;;;;;5.78;2.70;;;;;;;;;;5018111;28;20061;-82
2023/12/16 11:27:23;;;;;;;9.27;2.97;;;;;;;;;;5017463;28;20097;-81
2023/12/16 11:29:49;;;;;;;10.20;3.00;;;;;;;;;;5019031;28;20026;-81
2023/12/16 11:32:16;;;;;;;9.68;2.65;;;;;;;;;;5018751;28;20040;-80
2023/12/16 11:34:42;;;;;;;6.32;2.50;;;;;;;;;;5018890;28;20375;-81
2023/12/16 11:37:07;;;;;;;7.88;2.70;;;;;;;;;;5019550;28;20093;-82
2023/12/16 11:39:40;;;;;;;8.50;2.85;;;;;;;;;;5018593;28;20030;-80
2023/12/16 11:42:10;;;;;;;6.90;2.93;;;;;;;;;;5020130;28;20026;-81
2023/12/16 11:44:52;;;;;;;8.23;2.72;;;;;;;;;;5034524;28;20022;-80
2023/12/16 11:47:20;;;;;;;13.48;3.10;;;;;;;;;;5020343;28;20142;-82
2023/12/16 11:49:47;;;;;;;10.82;3.10;;;;;;;;;;5018271;28;20392;-81
2023/12/16 11:52:13;;;;;;;5.80;2.55;;;;;;;;;;5018439;28;20026;-81
2023/12/16 11:54:39;;;;;;;8.43;2.55;;;;;;;;;;5018852;28;20030;-81
2023/12/16 11:57:04;;;;;;;12.17;3.10;;;;;;;;;;5018961;28;20033;-82
2023/12/16 11:59:30;;;;;;;12.52;3.20;;;;;;;;;;5017972;28;20283;-81
2023/12/16 12:01:55;;;;;;;7.10;2.97;;;;;;;;;;5017752;28;20038;-82
2023/12/16 12:04:20;;;;;;;5.78;2.53;;;;;;;;;;5019071;28;20260;-79
2023/12/16 12:06:46;;;;;;;8.50;2.53;;;;;;;;;;5019688;28;20029;-82
2023/12/16 12:09:11;;;;;;;9.23;2.78;;;;;;;;;;5035703;28;20026;-81
2023/12/16 12:11:36;;;;;;;11.25;2.40;;;;;;;;;;5019645;28;20030;-84
2023/12/16 12:14:03;;;;;;;9.17;2.70;;;;;;;;;;5019546;28;20041;-81
2023/12/16 12:16:29;;;;;;;8.73;2.42;;;;;;;;;;5021605;28;20354;-80
2023/12/16 12:18:56;;;;;;;5.40;2.70;;;;;;;;;;5023076;28;20040;-83
2023/12/16 12:21:21;;;;;;;8.43;2.90;;;;;;;;;;5019273;28;20036;-81
2023/12/16 12:23:46;;;;;;;13.35;3.63;;;;;;;;;;5033964;28;20050;-82
2023/12/16 12:26:11;;;;;;;10.05;2.50;;;;;;;;;;5020404;28;20030;-82
2023/12/16 12:28:37;;;;;;;7.75;2.42;;;;;;;;;;5022183;28;20389;-82
2023/12/16 12:31:06;;;;;;;7.28;2.40;;;;;;;;;;5023268;28;20028;-81
2023/12/16 12:33:32;;;;;;;7.55;2.17;;;;;;;;;;5022078;28;20113;-83
2023/12/16 12:35:58;;;;;;;7.05;2.33;;;;;;;;;;5022502;28;20054;-81
2023/12/16 12:38:23;;;;;;;8.23;2.65;;;;;;;;;;5021067;28;20032;-80
2023/12/16 12:41:06;;;;;;;11.20;2.47;;;;;;;;;;5020261;28;20058;-80
2023/12/16 12:43:33;;;;;;;7.82;2.75;;;;;;;;;;5021459;28;20028;-81
2023/12/16 12:46:10;;;;;;;11.98;2.63;;;;;;;;;;5022364;28;20054;-83
2023/12/16 12:48:37;;;;;;;9.55;2.28;;;;;;;;;;5022538;28;20025;-85
2023/12/16 12:51:09;;;;;;;6.38;2.25;;;;;;;;;;5021788;28;20069;-83
2023/12/16 12:53:38;;;;;;;8.68;2.22;;;;;;;;;;5038576;28;20022;-81
2023/12/16 12:56:04;;;;;;;7.75;2.63;;;;;;;;;;5023224;28;20045;-82
2023/12/16 12:58:31;;;;;;;10.75;2.80;;;;;;;;;;5025289;28;20393;-80
2023/12/16 13:01:01;;;;;;;11.07;2.75;;;;;;;;;;5024003;28;20030;-81
2023/12/16 13:03:28;;;;;;;9.05;2.35;;;;;;;;;;5024837;28;20057;-81
2023/12/16 13:05:53;;;;;;;13.38;2.25;;;;;;;;;;5022409;28;20034;-80
2023/12/16 13:08:18;;;;;;;8.13;2.83;;;;;;;;;;5019770;28;20022;-79
2023/12/16 13:10:45;;;;;;;7.28;2.47;;;;;;;;;;5020106;28;20053;-80
2023/12/16 13:13:10;;;;;;;9.27;2.60;;;;;;;;;;5018701;28;20482;-78
2023/12/16 13:15:36;;;;;;;10.07;2.58;;;;;;;;;;5019717;28;20030;-80
2023/12/16 13:18:01;;;;;;;8.60;2.58;;;;;;;;;;5019856;28;20057;-80
2023/12/16 13:20:27;;;;;;;11.43;2.63;;;;;;;;;;5018785;28;20547;-80
2023/12/16 13:22:52;;;;;;;5.90;2.40;;;;;;;;;;5020245;28;20041;-80
2023/12/16 13:25:18;;;;;;;11.75;2.88;;;;;;;;;;5019731;28;20026;-80
2023/12/16 13:27:43;;;;;;;7.57;2.20;;;;;;;;;;5018657;28;20481;-81
2023/12/16 13:30:10;;;;;;;7.55;2.80;;;;;;;;;;5019641;28;20757;-81
2023/12/16 13:32:40;;;;;;;9.23;2.67;;;;;;;;;;5019843;28;20037;-80
2023/12/16 13:35:07;;;;;;;11.77;3.10;;;;;;;;;;5018446;28;20026;-80
2023/12/16 13:37:32;;;;;;;11.05;2.88;;;;;;;;;;5019523;28;20060;-82
2023/12/16 13:39:58;;;;;;;5.93;2.70;;;;;;;;;;5019055;28;20080;-80
2023/12/16 13:42:24;;;;;;;11.30;3.03;;;;;;;;;;5019567;28;20033;-81
2023/12/16 13:44:49;;;;;;;13.30;3.20;;;;;;;;;;5019333;28;20109;-82
2023/12/16 13:47:14;;;;;;;6.65;2.40;;;;;;;;;;5019521;28;20547;-83
2023/12/16 13:49:40;;;;;;;7.47;2.90;;;;;;;;;;5022307;28;20022;-82
2023/12/16 13:52:08;;;;;;;10.65;2.90;;;;;;;;;;5020985;28;20056;-83
2023/12/16 13:55:22;;;;;;;7.90;2.75;;;;;;;;;;5077837;28;20380;-86
2023/12/16 14:01:00;;;;;;;8.85;2.95;;;;;;;;;;5078226;28;19909;-83
2023/12/16 14:03:25;;;;;;;10.52;2.92;;;;;;;;;;5089846;28;20040;-80
2023/12/16 14:05:51;;;;;;;7.85;3.15;;;;;;;;;;5089764;28;20036;-80
2023/12/16 14:08:18;;;;;;;9.45;2.88;;;;;;;;;;5079096;28;20020;-83
2023/12/16 14:10:45;;;;;;;14.13;2.95;;;;;;;;;;5072474;28;20078;-82
2023/12/16 14:13:10;;;;;;;9.20;2.78;;;;;;;;;;5073274;28;20086;-82
2023/12/16 14:15:35;;;;;;;7.47;2.88;;;;;;;;;;5072439;28;20484;-81
2023/12/16 14:18:09;;;;;;;7.87;3.60;;;;;;;;;;5072809;28;20566;-82
2023/12/16 14:20:42;;;;;;;7.70;3.05;;;;;;;;;;5074361;28;20269;-82
2023/12/16 14:23:32;;;;;;;9.90;2.95;;;;;;;;;;5073366;28;20028;-83
2023/12/16 14:26:06;;;;;;;9.23;3.03;;;;;;;;;;5072160;28;20024;-83
2023/12/16 14:28:40;;;;;;;7.95;2.80;;;;;;;;;;5072487;28;20123;-82
2023/12/16 14:31:13;;;;;;;9.63;2.83;;;;;;;;;;5071651;28;20078;-82
2023/12/16 14:33:45;;;;;;;;;;;;;;;;;;5072468;28;20028;-82
2023/12/16 14:36:14;;;;;;;12.93;2.78;;;;;;;;;;5071466;28;19944;-82